Time;durP1;ratioP1;P1;durP2;ratioP2;P2;SDS_P1;SDS_P2;PMS_P1;PMS_P2;Temp;Humidity;BMP_temperature;BMP_pressure;BME280_temperature;BME280_humidity;BME280_pressure;Samples;Min_cycle;Max_cycle;Signal;HPM_P1;HPM_P2
2022/01/05 00:09:45;;;;;;;1.92;1.20;;;5.20;99.90;;;;;;19985824;29;20089;-55
2022/01/05 00:21:12;;;;;;;3.60;1.67;;;5.00;99.90;;;;;;20027176;29;20499;-57
2022/01/05 00:32:35;;;;;;;1.83;0.90;;;5.10;99.90;;;;;;19947452;29;20480;-56
2022/01/05 00:44:20;;;;;;;2.67;1.58;;;5.10;99.90;;;;;;19907492;29;20094;-53
2022/01/05 00:55:53;;;;;;;6.18;1.92;;;5.00;99.90;;;;;;19873054;29;20143;-56
2022/01/05 01:07:16;;;;;;;420.75;18.25;;;5.00;99.90;;;;;;19939029;29;20150;-56
2022/01/05 01:18:38;;;;;;;10.75;1.50;;;4.80;99.90;;;;;;19723947;30;20187;-53
2022/01/05 01:30:01;;;;;;;1.30;0.80;;;4.80;99.90;;;;;;19796788;30;20090;-52
2022/01/05 01:41:56;;;;;;;1.88;0.90;;;5.00;99.90;;;;;;19914634;29;20141;-52
2022/01/05 01:53:19;;;;;;;1035.30;44.45;;;5.10;99.90;;;;;;20134611;29;20080;-53
2022/01/05 02:04:43;;;;;;;437.45;18.75;;;5.30;99.90;;;;;;20076281;29;20131;-55
2022/01/05 02:16:32;;;;;;;247.88;8.95;;;4.90;99.90;;;;;;19857682;29;20078;-53
2022/01/05 02:28:26;;;;;;;179.57;6.88;;;4.80;99.90;;;;;;20015382;29;20077;-55
2022/01/05 02:40:33;;;;;;;42.38;2.45;;;4.70;99.90;;;;;;20037618;29;20081;-52
2022/01/05 02:52:35;;;;;;;64.65;2.03;;;4.60;99.90;;;;;;19943809;29;20116;-51
2022/01/05 03:03:57;;;;;;;488.95;18.30;;;4.50;99.90;;;;;;19848502;29;20074;-52
2022/01/05 03:15:31;;;;;;;619.10;25.30;;;4.60;99.90;;;;;;19533561;30;20072;-51
2022/01/05 03:26:53;;;;;;;761.17;30.35;;;4.70;99.90;;;;;;19608956;30;20151;-52
2022/01/05 03:38:53;;;;;;;907.53;34.00;;;4.70;99.90;;;;;;19816844;29;20081;-55
2022/01/05 03:50:56;;;;;;;884.97;41.60;;;4.70;99.90;;;;;;20024194;29;20121;-52
2022/01/05 04:02:30;;;;;;;1299.75;66.15;;;4.70;99.90;;;;;;20125786;29;20148;-54
2022/01/05 04:14:18;;;;;;;1349.93;70.80;;;4.80;99.90;;;;;;20134630;29;20136;-55
2022/01/05 04:26:13;;;;;;;1362.40;74.15;;;4.80;99.90;;;;;;20176068;29;20044;-55
2022/01/05 04:38:08;;;;;;;793.55;37.67;;;4.80;99.90;;;;;;20105196;29;20084;-56
2022/01/05 04:50:14;;;;;;;1044.63;47.70;;;4.80;99.90;;;;;;20025863;29;20041;-53
2022/01/05 05:01:43;;;;;;;1219.65;61.47;;;4.80;99.90;;;;;;20055871;29;20041;-53
2022/01/05 05:13:54;;;;;;;827.78;36.25;;;4.80;99.90;;;;;;20211555;29;20115;-52
2022/01/05 05:25:23;;;;;;;876.45;35.78;;;4.80;99.90;;;;;;20318296;29;20104;-53
2022/01/05 05:36:41;;;;;;;525.47;22.98;;;4.80;99.90;;;;;;20223531;29;20132;-52
2022/01/05 05:48:30;;;;;;;974.42;40.83;;;4.80;99.90;;;;;;20255556;29;20084;-53
2022/01/05 06:00:04;;;;;;;748.30;34.10;;;4.80;99.90;;;;;;20297222;29;20080;-54
2022/01/05 06:11:53;;;;;;;365.60;16.60;;;4.80;99.90;;;;;;20283976;29;20461;-52
2022/01/05 06:23:32;;;;;;;696.45;30.88;;;4.80;99.90;;;;;;20308150;29;20132;-51
2022/01/05 06:35:06;;;;;;;1571.70;87.45;;;4.80;99.90;;;;;;20308493;29;20079;-53
2022/01/05 06:46:39;;;;;;;1484.82;71.88;;;4.80;99.90;;;;;;20250374;29;20177;-50
2022/01/05 06:58:24;;;;;;;1187.97;55.30;;;4.80;99.90;;;;;;20142359;29;20076;-51
2022/01/05 07:10:13;;;;;;;1826.70;92.65;;;4.80;99.90;;;;;;20106153;29;20081;-52
2022/01/05 07:21:42;;;;;;;1143.75;50.90;;;4.80;99.90;;;;;;20097204;29;20065;-54
2022/01/05 07:33:15;;;;;;;701.35;30.58;;;4.70;99.90;;;;;;20094047;29;20080;-50
2022/01/05 07:44:59;;;;;;;561.17;22.15;;;4.70;99.90;;;;;;20305373;29;20111;-52
2022/01/05 07:56:44;;;;;;;492.45;25.33;;;4.80;99.90;;;;;;20230515;29;20454;-51
2022/01/05 08:08:33;;;;;;;1006.55;47.75;;;4.70;99.90;;;;;;20294763;29;20498;-52
2022/01/05 08:20:29;;;;;;;1999.90;112.32;;;4.70;99.90;;;;;;20105571;29;20152;-53
2022/01/05 08:32:25;;;;;;;1593.50;74.40;;;4.60;99.90;;;;;;20022555;29;20099;-51
2022/01/05 08:44:21;;;;;;;1970.45;99.53;;;4.60;99.90;;;;;;20135141;29;20077;-52
2022/01/05 08:56:00;;;;;;;1999.90;99.95;;;4.60;99.90;;;;;;20178143;29;20076;-53
2022/01/05 09:07:22;;;;;;;1299.63;67.60;;;4.60;99.90;;;;;;20087996;29;20081;-52
2022/01/05 09:19:22;;;;;;;1615.65;79.70;;;4.60;99.90;;;;;;20098891;29;20121;-52
2022/01/05 09:31:14;;;;;;;428.02;22.65;;;4.50;99.90;;;;;;19950765;29;20077;-53
2022/01/05 09:42:58;;;;;;;437.67;18.08;;;4.50;99.90;;;;;;19832167;29;20132;-56
2022/01/05 09:54:59;;;;;;;640.13;24.42;;;4.50;99.90;;;;;;19797026;29;20083;-51
2022/01/05 10:06:54;;;;;;;155.00;9.13;;;4.50;99.90;;;;;;19995668;29;20081;-55
2022/01/05 10:18:49;;;;;;;3.33;1.70;;;4.50;99.90;;;;;;19945441;29;20120;-55
2022/01/05 10:30:35;;;;;;;4.55;1.90;;;4.30;99.90;;;;;;19794432;29;20534;-52
2022/01/05 10:41:57;;;;;;;2.35;0.95;;;4.40;99.90;;;;;;19752230;29;20136;-52
2022/01/05 10:53:57;;;;;;;12.00;1.52;;;4.40;99.90;;;;;;19829272;29;20497;-50
2022/01/05 11:05:37;;;;;;;5.75;1.60;;;4.50;99.90;;;;;;19843136;29;20078;-52
2022/01/05 11:16:59;;;;;;;283.27;13.30;;;4.40;99.90;;;;;;19743567;29;20506;-52
2022/01/05 11:28:59;;;;;;;1.15;0.75;;;4.40;99.90;;;;;;19793460;29;20321;-49
2022/01/05 11:40:29;;;;;;;0.10;0.10;;;4.20;99.90;;;;;;19914505;29;20090;-51
2022/01/05 11:51:51;;;;;;;0.05;0.00;;;4.20;99.90;;;;;;19885785;29;20070;-50
2022/01/05 12:03:53;;;;;;;0.10;0.00;;;4.00;99.90;;;;;;19955275;29;20161;-50
2022/01/05 12:15:56;;;;;;;0.05;0.00;;;3.80;99.90;;;;;;19905310;29;20046;-50
2022/01/05 12:27:40;;;;;;;0.00;0.00;;;3.20;99.90;;;;;;19937936;29;20146;-49
2022/01/05 12:39:40;;;;;;;0.00;0.00;;;1.80;99.90;;;;;;20027297;29;20077;-50
2022/01/05 12:51:32;;;;;;;0.00;0.00;;;1.20;99.90;;;;;;20200492;29;20076;-49
2022/01/05 13:02:53;;;;;;;0.00;0.00;;;1.00;99.90;;;;;;20478912;28;20078;-49
2022/01/05 13:15:00;;;;;;;0.00;0.00;;;1.00;99.90;;;;;;20494115;29;20064;-53
2022/01/05 13:27:00;;;;;;;0.00;0.00;;;1.00;99.90;;;;;;20476552;29;20095;-47
2022/01/05 13:51:37;;;;;;;0.65;0.00;;;0.80;99.90;;;;;;20489706;28;20090;-49
2022/01/05 14:03:37;;;;;;;0.00;0.00;;;0.80;99.90;;;;;;20486041;28;20086;-51
2022/01/05 14:26:45;;;;;;;0.10;0.00;;;0.70;99.90;;;;;;20363559;29;20074;-50
2022/01/05 14:38:47;;;;;;;0.10;0.00;;;0.70;99.90;;;;;;20404169;29;20097;-52
2022/01/05 14:50:20;;;;;;;0.90;0.10;;;0.70;99.90;;;;;;20472329;29;20388;-50
2022/01/05 15:13:15;;;;;;;0.10;0.00;;;0.60;99.90;;;;;;20610706;28;20082;-48
2022/01/05 15:24:47;;;;;;;0.10;0.10;;;0.60;99.90;;;;;;20633131;28;20537;-48
2022/01/05 15:36:36;;;;;;;0.22;0.10;;;0.60;99.90;;;;;;20437334;29;20107;-51
2022/01/05 15:48:50;;;;;;;0.17;0.10;;;0.50;99.90;;;;;;20246210;29;20529;-50
2022/01/05 16:12:18;;;;;;;0.40;0.20;;;0.40;99.90;;;;;;19994955;29;20538;-53
2022/01/05 16:23:16;;;;;;;0.10;0.10;;;0.40;99.90;;;;;;20021511;29;20110;-57
2022/01/05 16:33:22;;;;;;;0.25;0.10;;;0.40;99.90;;;;;;20108703;29;20471;-52
2022/01/05 16:43:25;;;;;;;0.95;0.40;;;0.30;99.90;;;;;;20140362;29;20129;-54
2022/01/05 16:53:28;;;;;;;0.82;0.10;;;0.30;99.90;;;;;;20147883;29;20528;-55
2022/01/05 17:03:32;;;;;;;0.20;0.10;;;0.20;99.90;;;;;;20282376;29;20080;-57
2022/01/05 17:13:36;;;;;;;0.45;0.17;;;0.10;99.90;;;;;;20274696;29;20079;-59
2022/01/05 17:23:43;;;;;;;0.28;0.17;;;0.10;99.90;;;;;;20271884;29;20611;-58
2022/01/05 17:33:46;;;;;;;0.10;0.10;;;0.00;99.90;;;;;;20296362;28;20075;-54
2022/01/05 17:43:49;;;;;;;0.30;0.20;;;-0.10;99.90;;;;;;20546757;28;20082;-55
2022/01/05 17:53:52;;;;;;;0.50;0.30;;;-0.20;99.90;;;;;;20502263;28;20082;-54
2022/01/05 18:03:54;;;;;;;1.33;0.40;;;-0.30;99.90;;;;;;20472946;28;20047;-52
2022/01/05 18:13:57;;;;;;;0.35;0.25;;;-0.40;99.90;;;;;;20775020;28;20073;-53
2022/01/05 18:24:00;;;;;;;0.80;0.40;;;-0.50;99.90;;;;;;21035338;28;20465;-53
2022/01/05 18:34:03;;;;;;;9.55;0.60;;;-0.60;99.90;;;;;;21051281;28;20032;-52
2022/01/05 18:44:06;;;;;;;1.05;0.50;;;-0.70;99.90;;;;;;21088194;28;20109;-52
2022/01/05 18:54:08;;;;;;;0.32;0.20;;;-0.80;99.90;;;;;;21143901;28;20096;-51
2022/01/05 19:04:11;;;;;;;0.38;0.20;;;-0.90;99.90;;;;;;20957876;28;20049;-53
2022/01/05 19:14:14;;;;;;;0.60;0.30;;;-1.00;99.90;;;;;;20957794;28;20082;-57
2022/01/05 19:24:18;;;;;;;0.68;0.10;;;-1.10;99.90;;;;;;20957619;28;20040;-56
2022/01/05 19:34:23;;;;;;;0.30;0.15;;;-1.20;99.90;;;;;;20984184;28;20164;-55
2022/01/05 19:44:27;;;;;;;0.20;0.10;;;-1.40;99.90;;;;;;21132460;28;20055;-55
2022/01/05 19:54:34;;;;;;;0.17;0.10;;;-1.60;99.90;;;;;;21048377;28;20032;-58
2022/01/05 20:04:39;;;;;;;0.20;0.15;;;-1.70;99.90;;;;;;21064135;28;20047;-53
2022/01/05 20:14:41;;;;;;;0.20;0.10;;;-1.80;99.90;;;;;;21064900;28;20627;-55
2022/01/05 20:25:16;;;;;;;1.10;0.10;;;-1.90;99.90;;;;;;21063073;28;20039;-54
2022/01/05 20:35:20;;;;;;;0.00;0.00;;;-1.90;99.90;;;;;;21062106;28;20353;-55
2022/01/05 20:45:24;;;;;;;0.60;0.00;;;-1.90;99.90;;;;;;21061073;28;20097;-53
2022/01/05 20:55:27;;;;;;;0.00;0.00;;;-1.80;99.90;;;;;;21061469;28;20086;-52
2022/01/05 21:05:30;;;;;;;0.20;0.00;;;-1.90;99.90;;;;;;21059987;28;20101;-52
2022/01/05 21:15:37;;;;;;;0.00;0.00;;;-1.90;99.90;;;;;;21059292;28;20430;-52
2022/01/05 21:25:46;;;;;;;0.00;0.00;;;-2.10;99.90;;;;;;21058520;28;20040;-52
2022/01/05 21:35:50;;;;;;;0.00;0.00;;;-2.30;99.90;;;;;;21057558;28;20391;-57
2022/01/05 21:46:02;;;;;;;0.03;0.00;;;-2.30;99.90;;;;;;21096684;28;20101;-55
2022/01/05 21:56:06;;;;;;;0.20;0.00;;;-2.40;99.90;;;;;;21055626;28;20093;-54
2022/01/05 22:06:09;;;;;;;0.45;0.17;;;-2.50;99.90;;;;;;21057047;28;20105;-52
2022/01/05 22:16:13;;;;;;;0.00;0.00;;;-2.50;99.90;;;;;;21075605;28;20047;-54
2022/01/05 22:26:15;;;;;;;0.00;0.00;;;-2.40;99.90;;;;;;21081847;28;20104;-55
2022/01/05 22:36:18;;;;;;;0.00;0.00;;;-2.50;99.90;;;;;;21052129;28;20095;-55
2022/01/05 22:46:21;;;;;;;0.00;0.00;;;-2.50;99.90;;;;;;21107448;28;20071;-54
2022/01/05 22:56:24;;;;;;;0.30;0.00;;;-2.50;99.90;;;;;;21134702;28;20044;-52
2022/01/05 23:06:27;;;;;;;0.63;0.10;;;-2.50;99.90;;;;;;21134795;28;20043;-55
2022/01/05 23:16:30;;;;;;;0.10;0.00;;;-2.40;99.90;;;;;;21117202;28;20100;-51
2022/01/05 23:26:33;;;;;;;0.10;0.00;;;-2.40;99.90;;;;;;21133657;28;20092;-52
2022/01/05 23:36:36;;;;;;;0.10;0.00;;;-2.50;99.90;;;;;;21132363;28;20031;-51
2022/01/05 23:46:40;;;;;;;0.10;0.00;;;-2.40;99.90;;;;;;21132618;28;20047;-50
2022/01/05 23:56:43;;;;;;;0.52;0.00;;;-2.30;99.90;;;;;;21132181;28;20104;-51
